sensor_id;sensor_type;location;lat;lon;timestamp;temperature;humidity
52799;DHT22;38667;42.872;74.622;2023-04-02T00:02:55;5.70;42.10
52799;DHT22;38667;42.872;74.622;2023-04-02T00:05:43;5.70;43.20
52799;DHT22;38667;42.872;74.622;2023-04-02T00:08:19;5.70;40.30
52799;DHT22;38667;42.872;74.622;2023-04-02T00:10:47;5.80;40.00
52799;DHT22;38667;42.872;74.622;2023-04-02T00:13:22;5.80;40.40
52799;DHT22;38667;42.872;74.622;2023-04-02T00:15:50;5.80;39.80
52799;DHT22;38667;42.872;74.622;2023-04-02T00:18:21;5.70;39.30
52799;DHT22;38667;42.872;74.622;2023-04-02T00:20:52;5.70;39.70
52799;DHT22;38667;42.872;74.622;2023-04-02T00:23:18;5.70;38.80
52799;DHT22;38667;42.872;74.622;2023-04-02T00:25:45;5.80;39.40
52799;DHT22;38667;42.872;74.622;2023-04-02T00:28:12;5.70;38.80
52799;DHT22;38667;42.872;74.622;2023-04-02T00:30:46;5.70;39.40
52799;DHT22;38667;42.872;74.622;2023-04-02T00:33:15;5.70;39.40
52799;DHT22;38667;42.872;74.622;2023-04-02T00:35:44;5.70;39.70
52799;DHT22;38667;42.872;74.622;2023-04-02T00:38:18;5.80;39.10
52799;DHT22;38667;42.872;74.622;2023-04-02T00:40:46;5.80;39.80
52799;DHT22;38667;42.872;74.622;2023-04-02T00:43:14;5.80;39.90
52799;DHT22;38667;42.872;74.622;2023-04-02T00:45:40;5.90;39.10
52799;DHT22;38667;42.872;74.622;2023-04-02T00:48:22;5.80;37.10
52799;DHT22;38667;42.872;74.622;2023-04-02T00:50:54;5.80;37.90
52799;DHT22;38667;42.872;74.622;2023-04-02T00:53:26;5.90;38.20
52799;DHT22;38667;42.872;74.622;2023-04-02T00:55:54;5.90;36.90
52799;DHT22;38667;42.872;74.622;2023-04-02T00:58:25;5.90;38.20
52799;DHT22;38667;42.872;74.622;2023-04-02T01:00:52;5.90;37.10
52799;DHT22;38667;42.872;74.622;2023-04-02T01:03:30;5.90;37.30
52799;DHT22;38667;42.872;74.622;2023-04-02T01:06:00;6.00;38.10
52799;DHT22;38667;42.872;74.622;2023-04-02T01:08:34;6.00;37.50
52799;DHT22;38667;42.872;74.622;2023-04-02T01:11:12;6.00;37.30
52799;DHT22;38667;42.872;74.622;2023-04-02T01:13:49;6.00;36.80
52799;DHT22;38667;42.872;74.622;2023-04-02T01:16:23;6.00;35.90
52799;DHT22;38667;42.872;74.622;2023-04-02T01:18:55;5.90;36.40
52799;DHT22;38667;42.872;74.622;2023-04-02T01:21:33;6.00;37.10
52799;DHT22;38667;42.872;74.622;2023-04-02T01:24:04;5.90;36.60
52799;DHT22;38667;42.872;74.622;2023-04-02T01:26:50;5.80;36.70
52799;DHT22;38667;42.872;74.622;2023-04-02T01:29:21;5.90;37.70
52799;DHT22;38667;42.872;74.622;2023-04-02T01:31:49;5.90;37.70
52799;DHT22;38667;42.872;74.622;2023-04-02T01:34:20;5.90;38.50
52799;DHT22;38667;42.872;74.622;2023-04-02T01:36:57;5.90;39.10
52799;DHT22;38667;42.872;74.622;2023-04-02T01:39:34;5.90;38.70
52799;DHT22;38667;42.872;74.622;2023-04-02T01:42:08;5.90;39.00
52799;DHT22;38667;42.872;74.622;2023-04-02T01:44:41;5.80;38.30
52799;DHT22;38667;42.872;74.622;2023-04-02T01:47:11;5.80;38.40
52799;DHT22;38667;42.872;74.622;2023-04-02T01:49:38;5.80;38.60
52799;DHT22;38667;42.872;74.622;2023-04-02T01:52:06;5.80;38.00
52799;DHT22;38667;42.872;74.622;2023-04-02T01:54:38;5.80;37.90
52799;DHT22;38667;42.872;74.622;2023-04-02T01:57:05;5.80;38.50
52799;DHT22;38667;42.872;74.622;2023-04-02T01:59:32;5.80;39.00
52799;DHT22;38667;42.872;74.622;2023-04-02T02:02:01;5.80;38.80
52799;DHT22;38667;42.872;74.622;2023-04-02T02:04:28;5.80;37.50
52799;DHT22;38667;42.872;74.622;2023-04-02T02:06:57;5.60;37.80
52799;DHT22;38667;42.872;74.622;2023-04-02T02:09:26;5.70;38.50
52799;DHT22;38667;42.872;74.622;2023-04-02T02:11:53;5.60;38.10
52799;DHT22;38667;42.872;74.622;2023-04-02T02:14:21;5.70;38.50
52799;DHT22;38667;42.872;74.622;2023-04-02T02:16:48;5.80;38.70
52799;DHT22;38667;42.872;74.622;2023-04-02T02:19:24;5.80;38.40
52799;DHT22;38667;42.872;74.622;2023-04-02T02:21:53;5.80;37.80
52799;DHT22;38667;42.872;74.622;2023-04-02T02:24:22;5.90;38.20
52799;DHT22;38667;42.872;74.622;2023-04-02T02:26:53;6.00;37.80
52799;DHT22;38667;42.872;74.622;2023-04-02T02:29:21;5.90;36.90
52799;DHT22;38667;42.872;74.622;2023-04-02T02:31:52;5.90;37.50
52799;DHT22;38667;42.872;74.622;2023-04-02T02:34:27;6.00;38.00
52799;DHT22;38667;42.872;74.622;2023-04-02T02:37:00;6.10;37.70
52799;DHT22;38667;42.872;74.622;2023-04-02T02:39:33;6.10;36.80
52799;DHT22;38667;42.872;74.622;2023-04-02T02:42:03;6.20;36.70
52799;DHT22;38667;42.872;74.622;2023-04-02T02:44:33;6.20;36.30
52799;DHT22;38667;42.872;74.622;2023-04-02T02:47:03;6.20;35.20
52799;DHT22;38667;42.872;74.622;2023-04-02T02:49:38;6.30;35.40
52799;DHT22;38667;42.872;74.622;2023-04-02T02:52:14;6.30;35.80
52799;DHT22;38667;42.872;74.622;2023-04-02T02:54:43;6.40;35.90
52799;DHT22;38667;42.872;74.622;2023-04-02T02:57:13;6.50;35.60
52799;DHT22;38667;42.872;74.622;2023-04-02T02:59:41;6.50;36.20
52799;DHT22;38667;42.872;74.622;2023-04-02T03:02:08;6.70;36.20
52799;DHT22;38667;42.872;74.622;2023-04-02T03:04:36;6.90;36.90
52799;DHT22;38667;42.872;74.622;2023-04-02T03:07:04;7.00;36.40
52799;DHT22;38667;42.872;74.622;2023-04-02T03:09:37;7.10;35.50
52799;DHT22;38667;42.872;74.622;2023-04-02T03:12:11;7.30;36.10
52799;DHT22;38667;42.872;74.622;2023-04-02T03:14:46;7.40;36.40
52799;DHT22;38667;42.872;74.622;2023-04-02T03:17:16;7.50;35.30
52799;DHT22;38667;42.872;74.622;2023-04-02T03:19:49;7.50;35.40
52799;DHT22;38667;42.872;74.622;2023-04-02T03:22:20;7.70;36.10
52799;DHT22;38667;42.872;74.622;2023-04-02T03:24:52;7.90;35.30
52799;DHT22;38667;42.872;74.622;2023-04-02T03:27:24;8.10;34.60
52799;DHT22;38667;42.872;74.622;2023-04-02T03:30:01;8.10;34.30
52799;DHT22;38667;42.872;74.622;2023-04-02T03:32:31;8.20;35.50
52799;DHT22;38667;42.872;74.622;2023-04-02T03:35:02;8.40;35.10
52799;DHT22;38667;42.872;74.622;2023-04-02T03:37:37;8.50;35.50
52799;DHT22;38667;42.872;74.622;2023-04-02T03:40:06;8.60;35.50
52799;DHT22;38667;42.872;74.622;2023-04-02T03:42:39;8.60;35.50
52799;DHT22;38667;42.872;74.622;2023-04-02T03:45:13;8.60;35.60
52799;DHT22;38667;42.872;74.622;2023-04-02T03:47:44;8.70;35.10
52799;DHT22;38667;42.872;74.622;2023-04-02T03:50:18;8.80;35.70
52799;DHT22;38667;42.872;74.622;2023-04-02T03:52:46;8.90;35.20
52799;DHT22;38667;42.872;74.622;2023-04-02T03:55:15;9.00;35.20
52799;DHT22;38667;42.872;74.622;2023-04-02T03:57:46;9.10;34.50
52799;DHT22;38667;42.872;74.622;2023-04-02T04:00:21;9.20;35.10
52799;DHT22;38667;42.872;74.622;2023-04-02T04:02:53;9.40;34.80
52799;DHT22;38667;42.872;74.622;2023-04-02T04:05:25;9.60;34.70
52799;DHT22;38667;42.872;74.622;2023-04-02T04:07:56;9.70;33.20
52799;DHT22;38667;42.872;74.622;2023-04-02T04:10:25;9.70;33.10
52799;DHT22;38667;42.872;74.622;2023-04-02T04:12:55;9.80;32.90
52799;DHT22;38667;42.872;74.622;2023-04-02T04:15:29;9.90;33.00
52799;DHT22;38667;42.872;74.622;2023-04-02T04:18:00;10.00;32.20
52799;DHT22;38667;42.872;74.622;2023-04-02T04:20:35;10.10;32.40
52799;DHT22;38667;42.872;74.622;2023-04-02T04:23:10;10.20;32.00
52799;DHT22;38667;42.872;74.622;2023-04-02T04:25:39;10.20;33.20
52799;DHT22;38667;42.872;74.622;2023-04-02T04:28:12;10.30;32.50
52799;DHT22;38667;42.872;74.622;2023-04-02T04:30:48;10.40;32.10
52799;DHT22;38667;42.872;74.622;2023-04-02T04:33:20;10.50;32.30
52799;DHT22;38667;42.872;74.622;2023-04-02T04:35:52;10.50;31.50
52799;DHT22;38667;42.872;74.622;2023-04-02T04:38:25;10.70;33.00
52799;DHT22;38667;42.872;74.622;2023-04-02T04:40:55;10.80;31.20
52799;DHT22;38667;42.872;74.622;2023-04-02T04:43:29;10.90;30.40
52799;DHT22;38667;42.872;74.622;2023-04-02T04:46:00;11.00;31.30
52799;DHT22;38667;42.872;74.622;2023-04-02T04:48:33;11.10;30.90
52799;DHT22;38667;42.872;74.622;2023-04-02T04:51:05;11.20;30.80
52799;DHT22;38667;42.872;74.622;2023-04-02T04:53:44;11.30;31.30
52799;DHT22;38667;42.872;74.622;2023-04-02T04:56:11;11.40;30.20
52799;DHT22;38667;42.872;74.622;2023-04-02T04:58:44;11.60;30.40
52799;DHT22;38667;42.872;74.622;2023-04-02T05:01:14;11.70;30.90
52799;DHT22;38667;42.872;74.622;2023-04-02T05:03:45;11.90;30.50
52799;DHT22;38667;42.872;74.622;2023-04-02T05:06:21;12.10;29.90
52799;DHT22;38667;42.872;74.622;2023-04-02T05:08:49;12.20;30.50
52799;DHT22;38667;42.872;74.622;2023-04-02T05:11:25;12.30;29.50
52799;DHT22;38667;42.872;74.622;2023-04-02T05:13:57;12.50;30.10
52799;DHT22;38667;42.872;74.622;2023-04-02T05:16:28;12.70;29.60
52799;DHT22;38667;42.872;74.622;2023-04-02T05:19:02;12.80;30.10
52799;DHT22;38667;42.872;74.622;2023-04-02T05:21:38;13.00;29.10
52799;DHT22;38667;42.872;74.622;2023-04-02T05:24:25;13.20;29.60
52799;DHT22;38667;42.872;74.622;2023-04-02T05:26:57;13.30;28.50
52799;DHT22;38667;42.872;74.622;2023-04-02T05:29:27;13.40;28.20
52799;DHT22;38667;42.872;74.622;2023-04-02T05:31:59;13.40;28.30
52799;DHT22;38667;42.872;74.622;2023-04-02T05:34:28;13.40;28.30
52799;DHT22;38667;42.872;74.622;2023-04-02T05:36:58;13.50;28.20
52799;DHT22;38667;42.872;74.622;2023-04-02T05:39:26;13.60;28.40
52799;DHT22;38667;42.872;74.622;2023-04-02T05:41:59;13.70;28.10
52799;DHT22;38667;42.872;74.622;2023-04-02T05:44:28;13.80;28.60
52799;DHT22;38667;42.872;74.622;2023-04-02T05:46:58;13.90;29.60
52799;DHT22;38667;42.872;74.622;2023-04-02T05:49:29;13.80;28.40
52799;DHT22;38667;42.872;74.622;2023-04-02T05:52:01;13.80;28.10
52799;DHT22;38667;42.872;74.622;2023-04-02T05:54:31;14.00;28.30
52799;DHT22;38667;42.872;74.622;2023-04-02T05:57:02;14.50;29.40
52799;DHT22;38667;42.872;74.622;2023-04-02T05:59:32;15.40;26.50
52799;DHT22;38667;42.872;74.622;2023-04-02T06:02:01;16.20;25.70
52799;DHT22;38667;42.872;74.622;2023-04-02T06:04:32;16.60;25.90
52799;DHT22;38667;42.872;74.622;2023-04-02T06:07:06;16.60;26.10
52799;DHT22;38667;42.872;74.622;2023-04-02T06:09:38;16.90;24.70
52799;DHT22;38667;42.872;74.622;2023-04-02T06:12:30;17.80;24.50
52799;DHT22;38667;42.872;74.622;2023-04-02T06:14:58;18.90;24.40
52799;DHT22;38667;42.872;74.622;2023-04-02T06:17:24;18.80;23.20
52799;DHT22;38667;42.872;74.622;2023-04-02T06:19:52;18.70;23.50
52799;DHT22;38667;42.872;74.622;2023-04-02T06:22:24;19.20;23.00
52799;DHT22;38667;42.872;74.622;2023-04-02T06:24:59;19.60;23.50
52799;DHT22;38667;42.872;74.622;2023-04-02T06:27:27;19.00;23.20
52799;DHT22;38667;42.872;74.622;2023-04-02T06:29:58;18.70;22.50
52799;DHT22;38667;42.872;74.622;2023-04-02T06:32:25;18.50;24.50
52799;DHT22;38667;42.872;74.622;2023-04-02T06:34:52;18.40;24.10
52799;DHT22;38667;42.872;74.622;2023-04-02T06:37:24;18.10;24.40
52799;DHT22;38667;42.872;74.622;2023-04-02T06:39:52;18.00;24.40
52799;DHT22;38667;42.872;74.622;2023-04-02T06:42:20;18.30;22.90
52799;DHT22;38667;42.872;74.622;2023-04-02T06:44:48;18.50;22.70
52799;DHT22;38667;42.872;74.622;2023-04-02T06:47:22;18.20;22.00
52799;DHT22;38667;42.872;74.622;2023-04-02T06:49:55;18.00;23.00
52799;DHT22;38667;42.872;74.622;2023-04-02T06:52:27;17.80;22.70
52799;DHT22;38667;42.872;74.622;2023-04-02T06:54:54;18.00;23.00
52799;DHT22;38667;42.872;74.622;2023-04-02T06:57:20;18.50;22.10
52799;DHT22;38667;42.872;74.622;2023-04-02T06:59:47;18.90;22.10
52799;DHT22;38667;42.872;74.622;2023-04-02T07:02:24;19.40;21.90
52799;DHT22;38667;42.872;74.622;2023-04-02T07:04:52;19.50;20.70
52799;DHT22;38667;42.872;74.622;2023-04-02T07:07:20;19.80;22.00
52799;DHT22;38667;42.872;74.622;2023-04-02T07:09:47;19.90;21.20
52799;DHT22;38667;42.872;74.622;2023-04-02T07:12:14;20.10;21.00
52799;DHT22;38667;42.872;74.622;2023-04-02T07:14:40;21.00;19.60
52799;DHT22;38667;42.872;74.622;2023-04-02T07:17:08;21.50;18.60
52799;DHT22;38667;42.872;74.622;2023-04-02T07:19:39;21.70;19.30
52799;DHT22;38667;42.872;74.622;2023-04-02T07:22:05;21.20;19.30
52799;DHT22;38667;42.872;74.622;2023-04-02T07:24:31;20.90;20.00
52799;DHT22;38667;42.872;74.622;2023-04-02T07:26:59;21.10;20.20
52799;DHT22;38667;42.872;74.622;2023-04-02T07:29:25;22.00;20.00
52799;DHT22;38667;42.872;74.622;2023-04-02T07:31:52;22.60;18.80
52799;DHT22;38667;42.872;74.622;2023-04-02T07:34:18;23.50;17.40
52799;DHT22;38667;42.872;74.622;2023-04-02T07:36:44;23.20;17.30
52799;DHT22;38667;42.872;74.622;2023-04-02T07:39:10;22.50;18.00
52799;DHT22;38667;42.872;74.622;2023-04-02T07:41:50;22.90;17.80
52799;DHT22;38667;42.872;74.622;2023-04-02T07:44:18;22.90;18.40
52799;DHT22;38667;42.872;74.622;2023-04-02T07:46:44;22.30;19.00
52799;DHT22;38667;42.872;74.622;2023-04-02T07:49:11;22.10;19.10
52799;DHT22;38667;42.872;74.622;2023-04-02T07:51:37;21.60;19.20
52799;DHT22;38667;42.872;74.622;2023-04-02T07:54:04;21.30;19.40
52799;DHT22;38667;42.872;74.622;2023-04-02T07:56:30;20.80;18.60
52799;DHT22;38667;42.872;74.622;2023-04-02T07:58:56;20.30;19.00
52799;DHT22;38667;42.872;74.622;2023-04-02T08:01:26;20.30;20.40
52799;DHT22;38667;42.872;74.622;2023-04-02T08:03:53;20.50;20.00
52799;DHT22;38667;42.872;74.622;2023-04-02T08:06:20;21.30;20.00
52799;DHT22;38667;42.872;74.622;2023-04-02T08:08:46;22.40;18.70
52799;DHT22;38667;42.872;74.622;2023-04-02T08:11:13;23.10;17.40
52799;DHT22;38667;42.872;74.622;2023-04-02T08:13:39;23.00;17.20
52799;DHT22;38667;42.872;74.622;2023-04-02T08:16:06;22.90;17.00
52799;DHT22;38667;42.872;74.622;2023-04-02T08:18:35;22.50;18.30
52799;DHT22;38667;42.872;74.622;2023-04-02T08:21:01;21.80;19.10
52799;DHT22;38667;42.872;74.622;2023-04-02T08:23:28;21.30;19.10
52799;DHT22;38667;42.872;74.622;2023-04-02T08:25:55;21.50;18.30
52799;DHT22;38667;42.872;74.622;2023-04-02T08:28:21;21.40;19.10
52799;DHT22;38667;42.872;74.622;2023-04-02T08:30:48;21.20;18.30
52799;DHT22;38667;42.872;74.622;2023-04-02T08:33:14;21.00;19.20
52799;DHT22;38667;42.872;74.622;2023-04-02T08:35:42;21.40;19.10
52799;DHT22;38667;42.872;74.622;2023-04-02T08:38:11;22.90;17.60
52799;DHT22;38667;42.872;74.622;2023-04-02T08:40:40;24.80;15.90
52799;DHT22;38667;42.872;74.622;2023-04-02T08:43:37;26.00;15.10
52799;DHT22;38667;42.872;74.622;2023-04-02T08:46:10;26.50;14.30
52799;DHT22;38667;42.872;74.622;2023-04-02T08:48:41;27.20;14.60
52799;DHT22;38667;42.872;74.622;2023-04-02T08:51:21;27.40;14.00
52799;DHT22;38667;42.872;74.622;2023-04-02T08:53:47;28.10;14.60
52799;DHT22;38667;42.872;74.622;2023-04-02T08:56:17;27.80;14.40
52799;DHT22;38667;42.872;74.622;2023-04-02T08:58:47;27.50;13.90
52799;DHT22;38667;42.872;74.622;2023-04-02T09:01:21;27.70;14.30
52799;DHT22;38667;42.872;74.622;2023-04-02T09:03:52;27.60;13.50
52799;DHT22;38667;42.872;74.622;2023-04-02T09:06:22;27.40;14.30
52799;DHT22;38667;42.872;74.622;2023-04-02T09:08:50;27.00;14.30
52799;DHT22;38667;42.872;74.622;2023-04-02T09:11:23;27.20;14.60
52799;DHT22;38667;42.872;74.622;2023-04-02T09:13:54;27.30;13.80
52799;DHT22;38667;42.872;74.622;2023-04-02T09:16:31;28.10;13.40
52799;DHT22;38667;42.872;74.622;2023-04-02T09:18:59;28.30;13.60
52799;DHT22;38667;42.872;74.622;2023-04-02T09:21:32;28.40;13.10
52799;DHT22;38667;42.872;74.622;2023-04-02T09:24:00;28.70;12.90
52799;DHT22;38667;42.872;74.622;2023-04-02T09:26:28;29.20;13.40
52799;DHT22;38667;42.872;74.622;2023-04-02T09:29:00;29.20;12.70
52799;DHT22;38667;42.872;74.622;2023-04-02T09:31:31;28.60;12.70
52799;DHT22;38667;42.872;74.622;2023-04-02T09:33:59;29.10;13.70
52799;DHT22;38667;42.872;74.622;2023-04-02T09:36:33;29.50;12.60
52799;DHT22;38667;42.872;74.622;2023-04-02T09:39:04;29.80;12.70
52799;DHT22;38667;42.872;74.622;2023-04-02T09:41:30;29.80;12.70
52799;DHT22;38667;42.872;74.622;2023-04-02T09:44:19;28.80;12.30
52799;DHT22;38667;42.872;74.622;2023-04-02T09:46:50;28.70;12.60
52799;DHT22;38667;42.872;74.622;2023-04-02T09:49:17;27.80;12.90
52799;DHT22;38667;42.872;74.622;2023-04-02T09:51:45;26.30;13.10
52799;DHT22;38667;42.872;74.622;2023-04-02T09:54:30;25.40;13.80
52799;DHT22;38667;42.872;74.622;2023-04-02T09:57:00;24.60;14.70
52799;DHT22;38667;42.872;74.622;2023-04-02T09:59:27;24.60;14.90
52799;DHT22;38667;42.872;74.622;2023-04-02T10:01:58;24.90;14.80
52799;DHT22;38667;42.872;74.622;2023-04-02T10:04:34;24.50;15.10
52799;DHT22;38667;42.872;74.622;2023-04-02T10:07:03;23.60;15.00
52799;DHT22;38667;42.872;74.622;2023-04-02T10:09:31;22.90;15.40
52799;DHT22;38667;42.872;74.622;2023-04-02T10:11:58;22.30;15.40
52799;DHT22;38667;42.872;74.622;2023-04-02T10:14:27;21.90;15.60
52799;DHT22;38667;42.872;74.622;2023-04-02T10:16:57;21.50;16.30
52799;DHT22;38667;42.872;74.622;2023-04-02T10:19:27;21.40;16.40
52799;DHT22;38667;42.872;74.622;2023-04-02T10:21:55;21.40;16.40
52799;DHT22;38667;42.872;74.622;2023-04-02T10:24:27;21.40;15.70
52799;DHT22;38667;42.872;74.622;2023-04-02T10:26:59;21.70;16.20
52799;DHT22;38667;42.872;74.622;2023-04-02T10:29:50;23.60;13.70
52799;DHT22;38667;42.872;74.622;2023-04-02T10:32:20;24.60;13.20
52799;DHT22;38667;42.872;74.622;2023-04-02T10:34:54;24.10;15.70
52799;DHT22;38667;42.872;74.622;2023-04-02T10:37:46;24.50;14.60
52799;DHT22;38667;42.872;74.622;2023-04-02T10:40:20;23.40;13.70
52799;DHT22;38667;42.872;74.622;2023-04-02T10:42:56;22.50;14.90
52799;DHT22;38667;42.872;74.622;2023-04-02T10:45:34;22.00;16.10
52799;DHT22;38667;42.872;74.622;2023-04-02T10:48:11;21.80;16.00
52799;DHT22;38667;42.872;74.622;2023-04-02T10:50:44;21.50;16.40
52799;DHT22;38667;42.872;74.622;2023-04-02T10:53:14;21.20;15.80
52799;DHT22;38667;42.872;74.622;2023-04-02T10:55:46;21.00;16.50
52799;DHT22;38667;42.872;74.622;2023-04-02T10:58:22;20.80;15.00
52799;DHT22;38667;42.872;74.622;2023-04-02T11:00:50;20.50;16.40
52799;DHT22;38667;42.872;74.622;2023-04-02T11:03:27;20.50;15.10
52799;DHT22;38667;42.872;74.622;2023-04-02T11:05:56;20.50;15.90
52799;DHT22;38667;42.872;74.622;2023-04-02T11:08:26;20.40;16.30
52799;DHT22;38667;42.872;74.622;2023-04-02T11:10:58;20.40;15.60
52799;DHT22;38667;42.872;74.622;2023-04-02T11:13:29;20.40;15.60
52799;DHT22;38667;42.872;74.622;2023-04-02T11:15:56;20.20;16.20
52799;DHT22;38667;42.872;74.622;2023-04-02T11:18:26;20.20;16.70
52799;DHT22;38667;42.872;74.622;2023-04-02T11:20:58;20.30;17.20
52799;DHT22;38667;42.872;74.622;2023-04-02T11:23:29;20.20;17.40
52799;DHT22;38667;42.872;74.622;2023-04-02T11:26:33;20.10;17.40
52799;DHT22;38667;42.872;74.622;2023-04-02T11:29:13;20.00;17.60
52799;DHT22;38667;42.872;74.622;2023-04-02T11:31:41;19.90;18.00
52799;DHT22;38667;42.872;74.622;2023-04-02T11:34:15;19.80;18.30
52799;DHT22;38667;42.872;74.622;2023-04-02T11:37:05;19.60;17.30
52799;DHT22;38667;42.872;74.622;2023-04-02T11:39:50;19.50;17.40
52799;DHT22;38667;42.872;74.622;2023-04-02T11:42:27;19.40;18.50
52799;DHT22;38667;42.872;74.622;2023-04-02T11:44:54;19.30;17.00
52799;DHT22;38667;42.872;74.622;2023-04-02T11:47:22;19.20;17.90
52799;DHT22;38667;42.872;74.622;2023-04-02T11:50:02;19.00;17.90
52799;DHT22;38667;42.872;74.622;2023-04-02T11:52:34;18.90;17.70
52799;DHT22;38667;42.872;74.622;2023-04-02T11:55:21;18.80;17.50
52799;DHT22;38667;42.872;74.622;2023-04-02T11:58:01;18.80;16.70
52799;DHT22;38667;42.872;74.622;2023-04-02T12:00:51;18.90;16.70
52799;DHT22;38667;42.872;74.622;2023-04-02T12:03:35;18.80;17.20
52799;DHT22;38667;42.872;74.622;2023-04-02T12:06:11;18.60;16.40
52799;DHT22;38667;42.872;74.622;2023-04-02T12:08:48;18.60;16.30
52799;DHT22;38667;42.872;74.622;2023-04-02T12:11:30;18.60;16.90
52799;DHT22;38667;42.872;74.622;2023-04-02T12:13:59;18.50;16.00
52799;DHT22;38667;42.872;74.622;2023-04-02T12:16:27;18.40;16.30
52799;DHT22;38667;42.872;74.622;2023-04-02T12:18:58;18.20;15.70
52799;DHT22;38667;42.872;74.622;2023-04-02T12:21:27;18.00;15.80
52799;DHT22;38667;42.872;74.622;2023-04-02T12:23:56;17.90;16.00
52799;DHT22;38667;42.872;74.622;2023-04-02T12:26:29;17.70;17.60
52799;DHT22;38667;42.872;74.622;2023-04-02T12:29:22;17.60;16.90
52799;DHT22;38667;42.872;74.622;2023-04-02T12:31:49;17.60;16.70
52799;DHT22;38667;42.872;74.622;2023-04-02T12:34:17;17.60;16.90
52799;DHT22;38667;42.872;74.622;2023-04-02T12:36:55;17.40;17.50
52799;DHT22;38667;42.872;74.622;2023-04-02T12:39:22;17.10;16.60
52799;DHT22;38667;42.872;74.622;2023-04-02T12:41:48;17.00;16.60
52799;DHT22;38667;42.872;74.622;2023-04-02T12:44:16;16.80;16.50
52799;DHT22;38667;42.872;74.622;2023-04-02T12:46:45;16.60;17.10
52799;DHT22;38667;42.872;74.622;2023-04-02T12:49:22;16.40;17.30
52799;DHT22;38667;42.872;74.622;2023-04-02T12:51:49;16.40;18.50
52799;DHT22;38667;42.872;74.622;2023-04-02T12:54:17;16.20;17.10
52799;DHT22;38667;42.872;74.622;2023-04-02T12:56:44;16.00;17.00
52799;DHT22;38667;42.872;74.622;2023-04-02T12:59:26;15.80;17.70
52799;DHT22;38667;42.872;74.622;2023-04-02T13:01:59;15.60;17.70
52799;DHT22;38667;42.872;74.622;2023-04-02T13:04:25;15.50;17.70
52799;DHT22;38667;42.872;74.622;2023-04-02T13:06:52;15.40;18.50
52799;DHT22;38667;42.872;74.622;2023-04-02T13:09:29;15.30;18.00
52799;DHT22;38667;42.872;74.622;2023-04-02T13:11:56;15.10;17.30
52799;DHT22;38667;42.872;74.622;2023-04-02T13:14:23;15.00;18.10
52799;DHT22;38667;42.872;74.622;2023-04-02T13:16:50;15.00;18.50
52799;DHT22;38667;42.872;74.622;2023-04-02T13:19:29;14.90;17.90
52799;DHT22;38667;42.872;74.622;2023-04-02T13:21:57;14.80;19.10
52799;DHT22;38667;42.872;74.622;2023-04-02T13:24:25;14.70;18.10
52799;DHT22;38667;42.872;74.622;2023-04-02T13:26:54;14.60;18.50
52799;DHT22;38667;42.872;74.622;2023-04-02T13:29:24;14.50;18.40
52799;DHT22;38667;42.872;74.622;2023-04-02T13:31:52;14.40;18.70
52799;DHT22;38667;42.872;74.622;2023-04-02T13:34:19;14.40;18.60
52799;DHT22;38667;42.872;74.622;2023-04-02T13:36:47;14.30;19.00
52799;DHT22;38667;42.872;74.622;2023-04-02T13:39:14;14.30;19.00
52799;DHT22;38667;42.872;74.622;2023-04-02T13:41:41;14.20;19.30
52799;DHT22;38667;42.872;74.622;2023-04-02T13:44:16;14.10;20.00
52799;DHT22;38667;42.872;74.622;2023-04-02T13:46:44;14.00;19.70
52799;DHT22;38667;42.872;74.622;2023-04-02T13:49:10;14.00;19.50
52799;DHT22;38667;42.872;74.622;2023-04-02T13:51:38;13.80;19.80
52799;DHT22;38667;42.872;74.622;2023-04-02T13:54:13;13.80;20.00
52799;DHT22;38667;42.872;74.622;2023-04-02T13:56:40;13.70;20.00
52799;DHT22;38667;42.872;74.622;2023-04-02T13:59:06;13.60;19.70
52799;DHT22;38667;42.872;74.622;2023-04-02T14:01:32;13.50;20.10
52799;DHT22;38667;42.872;74.622;2023-04-02T14:03:59;13.40;20.00
52799;DHT22;38667;42.872;74.622;2023-04-02T14:06:33;13.30;20.00
52799;DHT22;38667;42.872;74.622;2023-04-02T14:09:14;13.10;20.30
52799;DHT22;38667;42.872;74.622;2023-04-02T14:11:50;13.00;20.70
52799;DHT22;38667;42.872;74.622;2023-04-02T14:14:36;12.90;21.90
52799;DHT22;38667;42.872;74.622;2023-04-02T14:17:12;12.80;21.40
52799;DHT22;38667;42.872;74.622;2023-04-02T14:19:53;12.60;21.60
52799;DHT22;38667;42.872;74.622;2023-04-02T14:22:31;12.50;21.80
52799;DHT22;38667;42.872;74.622;2023-04-02T14:25:12;12.30;21.50
52799;DHT22;38667;42.872;74.622;2023-04-02T14:27:44;12.20;22.10
52799;DHT22;38667;42.872;74.622;2023-04-02T14:30:17;12.10;22.20
52799;DHT22;38667;42.872;74.622;2023-04-02T14:32:54;12.10;22.40
52799;DHT22;38667;42.872;74.622;2023-04-02T14:35:26;11.90;22.60
52799;DHT22;38667;42.872;74.622;2023-04-02T14:37:58;11.90;22.30
52799;DHT22;38667;42.872;74.622;2023-04-02T14:40:35;11.70;22.20
52799;DHT22;38667;42.872;74.622;2023-04-02T14:43:07;11.70;22.50
52799;DHT22;38667;42.872;74.622;2023-04-02T14:45:47;11.70;22.10
52799;DHT22;38667;42.872;74.622;2023-04-02T14:48:29;11.60;22.30
52799;DHT22;38667;42.872;74.622;2023-04-02T14:50:58;11.50;21.90
52799;DHT22;38667;42.872;74.622;2023-04-02T14:53:31;11.40;22.00
52799;DHT22;38667;42.872;74.622;2023-04-02T14:56:01;11.40;22.50
52799;DHT22;38667;42.872;74.622;2023-04-02T14:58:32;11.40;22.40
52799;DHT22;38667;42.872;74.622;2023-04-02T15:01:02;11.40;22.70
52799;DHT22;38667;42.872;74.622;2023-04-02T15:03:32;11.40;22.50
52799;DHT22;38667;42.872;74.622;2023-04-02T15:06:02;11.40;22.70
52799;DHT22;38667;42.872;74.622;2023-04-02T15:08:32;11.30;23.90
52799;DHT22;38667;42.872;74.622;2023-04-02T15:11:05;11.30;24.60
52799;DHT22;38667;42.872;74.622;2023-04-02T15:13:36;11.20;25.60
52799;DHT22;38667;42.872;74.622;2023-04-02T15:16:07;11.10;25.90
52799;DHT22;38667;42.872;74.622;2023-04-02T15:18:35;11.10;26.40
52799;DHT22;38667;42.872;74.622;2023-04-02T15:21:17;11.00;26.60
52799;DHT22;38667;42.872;74.622;2023-04-02T15:23:53;11.00;27.20
52799;DHT22;38667;42.872;74.622;2023-04-02T15:26:27;11.00;26.90
52799;DHT22;38667;42.872;74.622;2023-04-02T15:29:02;10.90;27.00
52799;DHT22;38667;42.872;74.622;2023-04-02T15:31:29;10.90;27.00
52799;DHT22;38667;42.872;74.622;2023-04-02T15:34:06;10.90;27.30
52799;DHT22;38667;42.872;74.622;2023-04-02T15:36:49;10.80;27.00
52799;DHT22;38667;42.872;74.622;2023-04-02T15:39:37;10.80;26.50
52799;DHT22;38667;42.872;74.622;2023-04-02T15:42:25;10.80;27.50
52799;DHT22;38667;42.872;74.622;2023-04-02T15:45:14;10.70;26.40
52799;DHT22;38667;42.872;74.622;2023-04-02T15:47:54;10.60;26.90
52799;DHT22;38667;42.872;74.622;2023-04-02T15:53:30;10.50;27.00